Townsend, Montana
Current Conditions -  °F | °C
As of 6:53 PM on Wednesday 22 Oct 2014 (Local Time) from KHLN Reporting Station
Clear Clear  
Wind Chill: 56°   Ceiling: Unl
Heat Index: 56°   Visibility: 10mi
Dew Point: 32°   Wind: 5mph
Humidity: 40%   Direction: 240°WSW
Pressure: 29.94"   Gusts: NA
Location:  46.32°N, 111.52°W
Report Text: KHLN 230053Z 24004KT 10SM CLR 13/00 A2994 RMK AO2 SLP156 T01330000
Loading
Personal Weather Stations






























Interactive Weather Map
Tropical Storm Tracking
New forecast layout! Learn more

10-Day Weather Forecast

Advertisements
Track Severe Weather on mobile